Time;durP1;ratioP1;P1;durP2;ratioP2;P2;SDS_P1;SDS_P2;PMS_P1;PMS_P2;Temp;Humidity;BMP_temperature;BMP_pressure;BME280_temperature;BME280_humidity;BME280_pressure;Samples;Min_cycle;Max_cycle;Signal;HPM_P1;HPM_P2
2023/08/06 00:04:39;;;;;;;7.40;4.00;;;;;;;15.71;100.00;99681.38;224068;1265;95927;-87
2023/08/06 00:09:40;;;;;;;8.10;3.50;;;;;;;15.72;100.00;99689.77;223403;1265;141255;-88
2023/08/06 00:14:40;;;;;;;9.70;4.00;;;;;;;15.71;100.00;99666.80;223954;1265;139004;-87
2023/08/06 00:19:41;;;;;;;6.70;3.50;;;;;;;15.69;100.00;99657.24;223348;1265;140888;-88
2023/08/06 00:24:41;;;;;;;5.80;3.40;;;;;;;15.68;100.00;99658.15;223913;1265;139336;-88
2023/08/06 00:29:42;;;;;;;8.10;3.80;;;;;;;15.68;100.00;99645.77;223404;1265;141880;-88
2023/08/06 00:34:42;;;;;;;7.20;4.30;;;;;;;15.68;100.00;99638.08;223962;1265;95943;-88
2023/08/06 00:39:43;;;;;;;8.20;4.00;;;;;;;15.67;100.00;99631.76;223399;1265;140318;-87
2023/08/06 00:44:44;;;;;;;8.10;4.10;;;;;;;15.68;100.00;99614.80;223985;1265;139325;-86
2023/08/06 00:49:44;;;;;;;8.10;4.70;;;;;;;15.66;100.00;99604.45;223447;1265;140712;-87
2023/08/06 00:54:45;;;;;;;9.00;4.40;;;;;;;15.64;100.00;99594.42;223971;1265;139668;-87
2023/08/06 00:59:45;;;;;;;9.00;4.30;;;;;;;15.64;100.00;99577.23;223432;1265;209274;-87
2023/08/06 01:04:46;;;;;;;8.80;4.70;;;;;;;15.64;100.00;99564.45;224077;1265;96274;-87
2023/08/06 01:10:07;;;;;;;8.90;4.60;;;;;;;15.63;100.00;99553.02;223482;1265;141385;-87
2023/08/06 01:15:21;;;;;;;9.10;4.30;;;;;;;15.64;100.00;99529.60;223933;1265;138928;-87
2023/08/06 01:20:28;;;;;;;9.00;4.40;;;;;;;15.66;100.00;99515.86;223388;1265;143228;-86
2023/08/06 01:25:57;;;;;;;7.20;4.50;;;;;;;15.64;100.00;99505.52;223958;1265;139880;-86
2023/08/06 01:31:04;;;;;;;7.60;4.20;;;;;;;15.62;100.00;99503.33;223409;1265;140745;-86
2023/08/06 01:36:05;;;;;;;;;;;;;;;15.61;100.00;99492.27;223976;1265;138915;-86
2023/08/06 01:41:06;;;;;;;6.00;3.50;;;;;;;15.59;100.00;99480.20;223528;1265;127641;-85
2023/08/06 01:46:06;;;;;;;6.00;3.50;;;;;;;15.61;100.00;99475.41;224092;1265;95780;-85
2023/08/06 01:51:07;;;;;;;6.30;3.00;;;;;;;15.62;100.00;99467.45;223459;1265;140673;-86
2023/08/06 01:56:07;;;;;;;7.50;3.60;;;;;;;15.63;100.00;99459.17;224026;1264;139295;-85
2023/08/06 02:01:08;;;;;;;7.50;3.60;;;;;;;15.63;100.00;99452.77;223496;1265;141010;-85
2023/08/06 02:06:08;;;;;;;8.70;2.70;;;;;;;15.62;100.00;99446.03;224025;1265;138722;-85
2023/08/06 02:11:09;;;;;;;5.50;3.10;;;;;;;15.61;100.00;99432.11;223474;1265;140470;-84
2023/08/06 02:16:09;;;;;;;6.70;3.20;;;;;;;15.59;100.00;99406.73;224052;1265;95844;-84
2023/08/06 02:21:13;;;;;;;5.10;3.00;;;;;;;15.56;100.00;99385.59;223466;1264;140778;-85
2023/08/06 02:26:13;;;;;;;11.10;3.10;;;;;;;15.55;100.00;99380.15;224009;1264;138769;-85
2023/08/06 02:31:14;;;;;;;4.40;2.60;;;;;;;15.55;100.00;99366.19;223470;1264;140812;-84
2023/08/06 02:36:14;;;;;;;4.60;2.20;;;;;;;15.53;100.00;99360.55;224017;1265;139509;-84
2023/08/06 02:41:15;;;;;;;5.00;2.50;;;;;;;15.48;100.00;99343.95;223405;1265;141751;-84
2023/08/06 02:46:16;;;;;;;4.00;2.10;;;;;;;15.49;100.00;99333.08;224000;1265;95913;-85
2023/08/06 02:51:16;;;;;;;4.90;2.40;;;;;;;15.50;100.00;99324.65;223294;1265;141558;-84
2023/08/06 02:56:17;;;;;;;6.80;2.50;;;;;;;15.46;100.00;99310.12;224073;1265;139194;-83
2023/08/06 03:01:17;;;;;;;6.10;2.30;;;;;;;15.43;100.00;99301.64;223484;1265;140892;-84
2023/08/06 03:06:17;;;;;;;4.40;2.50;;;;;;;15.39;100.00;99280.90;224051;1264;139692;-84
2023/08/06 03:11:18;;;;;;;4.00;2.10;;;;;;;15.38;100.00;99264.03;223503;1265;140673;-83
2023/08/06 03:16:18;;;;;;;5.00;2.20;;;;;;;15.37;100.00;99251.80;224133;1264;95901;-84
2023/08/06 03:21:18;;;;;;;4.00;2.20;;;;;;;15.36;100.00;99245.44;223494;1265;141087;-82
2023/08/06 03:26:19;;;;;;;3.70;1.80;;;;;;;15.32;100.00;99226.75;223887;1265;138900;-84
2023/08/06 03:31:19;;;;;;;2.60;1.80;;;;;;;15.28;100.00;99212.66;223448;1265;140285;-83
2023/08/06 03:36:20;;;;;;;4.60;2.00;;;;;;;15.27;100.00;99198.59;223945;1265;139944;-83
2023/08/06 03:41:20;;;;;;;2.50;1.50;;;;;;;15.27;100.00;99198.65;223509;1265;142145;-83
2023/08/06 03:46:21;;;;;;;4.30;1.80;;;;;;;15.26;100.00;99178.50;224135;1264;95928;-83
2023/08/06 03:51:21;;;;;;;4.60;1.80;;;;;;;15.25;100.00;99169.11;223523;1265;140490;-83
2023/08/06 03:56:21;;;;;;;3.00;1.50;;;;;;;15.24;100.00;99144.92;224034;1265;138841;-82
2023/08/06 04:01:22;;;;;;;2.00;1.40;;;;;;;15.17;100.00;99127.52;223379;1265;141948;-83
2023/08/06 04:06:22;;;;;;;2.80;1.60;;;;;;;15.12;100.00;99140.56;224105;1265;138981;-83
2023/08/06 04:11:23;;;;;;;2.70;1.30;;;;;;;15.13;100.00;99147.27;223485;1265;141683;-82
2023/08/06 04:16:26;;;;;;;2.70;1.50;;;;;;;15.11;100.00;99140.67;224220;1265;95995;-83
2023/08/06 04:21:26;;;;;;;2.90;1.50;;;;;;;15.12;100.00;99148.26;223438;1265;140880;-82
2023/08/06 04:26:27;;;;;;;2.90;1.50;;;;;;;15.13;100.00;99151.62;224069;1265;138823;-83
2023/08/06 04:31:28;;;;;;;1.70;1.40;;;;;;;15.14;100.00;99135.75;223536;1264;140868;-84
2023/08/06 04:36:29;;;;;;;3.90;1.60;;;;;;;15.11;100.00;99118.98;224066;1265;139133;-85
2023/08/06 04:41:29;;;;;;;3.10;1.40;;;;;;;15.09;100.00;99111.67;223548;1265;141164;-83
2023/08/06 04:46:29;;;;;;;6.60;1.70;;;;;;;15.11;100.00;99112.73;224013;1265;95968;-81
2023/08/06 04:51:30;;;;;;;2.20;1.20;;;;;;;15.15;100.00;99136.45;223358;1265;140962;-81
2023/08/06 04:56:32;;;;;;;1.80;1.30;;;;;;;15.19;100.00;99157.16;224051;1265;139169;-81
2023/08/06 05:01:32;;;;;;;2.60;1.50;;;;;;;15.21;100.00;99167.00;223446;1268;141068;-82
2023/08/06 05:06:33;;;;;;;7.50;1.20;;;;;;;15.22;100.00;99159.94;224069;1265;138800;-84
2023/08/06 05:11:33;;;;;;;2.50;1.40;;;;;;;15.21;100.00;99153.64;223527;1268;142138;-83
2023/08/06 05:16:34;;;;;;;2.60;1.00;;;;;;;15.20;100.00;99154.76;224207;1265;95951;-83
2023/08/06 05:21:34;;;;;;;2.70;0.90;;;;;;;15.20;100.00;99154.22;223555;1265;140771;-82
2023/08/06 05:26:35;;;;;;;2.40;1.00;;;;;;;15.20;100.00;99162.69;224103;1266;142157;-83
2023/08/06 05:31:35;;;;;;;3.00;1.20;;;;;;;15.16;100.00;99123.59;223326;1264;142300;-84
2023/08/06 05:36:35;;;;;;;2.90;1.20;;;;;;;15.08;100.00;99093.66;223923;1265;139497;-83
2023/08/06 05:41:36;;;;;;;3.80;0.80;;;;;;;15.05;100.00;99099.27;223548;1265;140620;-83
2023/08/06 05:46:36;;;;;;;1.20;0.50;;;;;;;15.03;100.00;99091.75;224047;1265;96047;-83
2023/08/06 05:51:37;;;;;;;2.30;1.00;;;;;;;15.02;100.00;99094.45;223492;1265;141767;-82
2023/08/06 05:56:37;;;;;;;2.20;0.80;;;;;;;15.02;100.00;99097.15;224119;1265;138738;-83
2023/08/06 06:01:37;;;;;;;2.30;1.10;;;;;;;15.06;100.00;99113.04;223498;1265;140892;-82
2023/08/06 06:06:38;;;;;;;2.70;0.90;;;;;;;15.09;100.00;99112.88;224053;1265;138896;-82
2023/08/06 06:11:39;;;;;;;1.60;0.80;;;;;;;15.11;100.00;99095.08;223416;1265;140916;-82
2023/08/06 06:16:39;;;;;;;2.10;1.10;;;;;;;15.13;100.00;99067.38;224028;1265;96077;-82
2023/08/06 06:21:40;;;;;;;1.90;0.70;;;;;;;15.11;100.00;99057.56;223557;1265;140415;-83
2023/08/06 06:26:40;;;;;;;2.40;0.90;;;;;;;15.10;100.00;99067.64;224068;1265;138692;-84
2023/08/06 06:31:40;;;;;;;1.30;1.00;;;;;;;15.08;100.00;99048.13;223389;1265;140649;-84
2023/08/06 06:36:41;;;;;;;1.60;0.70;;;;;;;15.07;100.00;99032.00;223941;1265;139109;-83
2023/08/06 06:41:41;;;;;;;0.80;0.70;;;;;;;15.08;100.00;99020.75;223391;1266;141372;-83
2023/08/06 06:46:42;;;;;;;1.50;0.80;;;;;;;15.07;100.00;98999.16;223963;1265;105477;-83
2023/08/06 06:51:42;;;;;;;2.30;0.70;;;;;;;15.05;100.00;98976.66;223545;1265;140586;-84
2023/08/06 06:56:43;;;;;;;2.60;0.80;;;;;;;15.02;100.00;98987.37;223821;1265;139252;-83
2023/08/06 07:01:43;;;;;;;1.30;0.80;;;;;;;15.04;100.00;98980.80;223495;1268;142007;-83
2023/08/06 07:06:43;;;;;;;1.70;0.80;;;;;;;15.01;100.00;98985.56;224082;1265;138967;-83
2023/08/06 07:11:44;;;;;;;3.00;0.80;;;;;;;15.02;100.00;98981.60;223513;1264;143086;-82
2023/08/06 07:16:44;;;;;;;0.80;0.70;;;;;;;15.03;100.00;98968.48;224178;1265;95989;-83
2023/08/06 07:21:44;;;;;;;2.10;0.80;;;;;;;15.05;100.00;98952.77;223316;1266;141136;-82
2023/08/06 07:26:45;;;;;;;1.40;0.80;;;;;;;15.05;100.00;98947.04;224023;1265;138600;-82
2023/08/06 07:31:45;;;;;;;1.30;0.70;;;;;;;15.02;100.00;98940.72;223473;1265;142074;-83
2023/08/06 07:36:47;;;;;;;1.30;0.80;;;;;;;15.04;100.00;98939.82;224005;1265;139536;-84
2023/08/06 07:41:47;;;;;;;1.60;0.80;;;;;;;15.11;100.00;98931.69;223414;1265;141174;-83
2023/08/06 07:46:47;;;;;;;2.50;0.70;;;;;;;15.13;100.00;98931.60;223996;1265;96057;-84
2023/08/06 07:51:48;;;;;;;2.40;0.60;;;;;;;15.17;100.00;98932.27;223541;1265;142098;-84
2023/08/06 07:56:48;;;;;;;5.00;1.20;;;;;;;15.17;100.00;98924.66;224063;1265;139169;-84
2023/08/06 08:01:49;;;;;;;1.60;1.00;;;;;;;15.18;100.00;98924.58;223530;1265;141844;-81
2023/08/06 08:06:49;;;;;;;5.20;0.80;;;;;;;15.18;100.00;98918.29;223881;1266;138984;-81
2023/08/06 08:11:50;;;;;;;1.40;0.50;;;;;;;15.20;100.00;98913.83;223526;1265;140872;-80
2023/08/06 08:16:50;;;;;;;3.20;0.90;;;;;;;15.20;100.00;98915.70;224146;1266;95913;-81
2023/08/06 08:21:50;;;;;;;1.20;0.70;;;;;;;15.23;100.00;98904.69;223326;1265;143222;-81
2023/08/06 08:26:52;;;;;;;4.60;0.80;;;;;;;15.26;100.00;98913.06;223919;1265;139872;-81
2023/08/06 08:31:52;;;;;;;1.90;0.80;;;;;;;15.29;100.00;98916.13;223548;1269;141391;-81
2023/08/06 08:36:53;;;;;;;3.50;0.80;;;;;;;15.29;100.00;98923.24;224079;1265;139257;-82
2023/08/06 08:41:53;;;;;;;1.20;0.60;;;;;;;15.31;100.00;98916.61;223496;1265;140827;-81
2023/08/06 08:46:54;;;;;;;2.10;0.70;;;;;;;15.32;100.00;98906.79;224186;1265;95847;-81
2023/08/06 08:51:55;;;;;;;1.70;0.70;;;;;;;15.34;100.00;98885.67;223510;1265;141489;-80
2023/08/06 08:56:56;;;;;;;2.50;0.80;;;;;;;15.32;100.00;98863.69;223945;1268;139247;-80
2023/08/06 09:02:00;;;;;;;1.90;0.70;;;;;;;15.31;100.00;98833.79;223535;1269;140963;-80
2023/08/06 09:07:01;;;;;;;2.30;0.70;;;;;;;15.30;100.00;98820.75;224036;1265;138941;-81
2023/08/06 09:12:05;;;;;;;1.20;0.60;;;;;;;15.32;100.00;98822.52;223451;1269;141190;-80
2023/08/06 09:17:06;;;;;;;0.90;0.50;;;;;;;15.39;100.00;98825.39;224018;1265;139089;-81
2023/08/06 09:22:12;;;;;;;0.80;0.60;;;;;;;15.43;100.00;98815.59;223532;1270;142017;-81
2023/08/06 09:27:14;;;;;;;0.20;0.20;;;;;;;15.43;100.00;98803.64;223813;1269;138748;-81
2023/08/06 09:32:15;;;;;;;0.70;0.50;;;;;;;15.41;100.00;98802.11;223331;1265;141614;-82
2023/08/06 09:37:15;;;;;;;1.60;0.50;;;;;;;15.40;100.00;98798.48;224001;1265;138780;-82
2023/08/06 09:42:16;;;;;;;0.60;0.30;;;;;;;15.42;100.00;98765.98;223244;1265;304518;-81
2023/08/06 09:47:18;;;;;;;0.60;0.30;;;;;;;15.38;100.00;98736.02;224040;1266;139088;-82
2023/08/06 09:52:19;;;;;;;1.00;0.40;;;;;;;15.33;100.00;98736.35;223560;1265;140995;-82
2023/08/06 09:57:20;;;;;;;0.80;0.30;;;;;;;15.30;100.00;98739.82;223965;1266;138807;-84
2023/08/06 10:02:26;;;;;;;0.50;0.30;;;;;;;15.32;100.00;98738.02;223295;1266;141553;-84
2023/08/06 10:07:27;;;;;;;0.40;0.40;;;;;;;15.36;100.00;98743.77;223960;1268;139596;-84
2023/08/06 10:12:31;;;;;;;0.90;0.30;;;;;;;15.38;100.00;98745.73;223324;1266;141377;-83
2023/08/06 10:17:34;;;;;;;2.00;0.80;;;;;;;15.38;100.00;98717.88;223809;1267;139409;-83
2023/08/06 10:22:35;;;;;;;2.50;0.50;;;;;;;15.37;100.00;98688.20;223456;1267;141170;-83
2023/08/06 10:27:40;;;;;;;2.00;0.50;;;;;;;15.37;100.00;98708.16;223981;1269;138921;-83
2023/08/06 10:32:52;;;;;;;1.60;0.70;;;;;;;15.42;100.00;98713.13;223268;1268;140226;-82
2023/08/06 10:37:53;;;;;;;1.10;0.40;;;;;;;15.43;100.00;98667.64;223913;1266;138779;-82
2023/08/06 10:42:53;;;;;;;1.70;0.40;;;;;;;15.45;100.00;98718.27;223452;1264;141833;-84
2023/08/06 10:47:57;;;;;;;3.90;0.70;;;;;;;15.50;100.00;98731.62;223885;1265;138812;-85
2023/08/06 10:53:05;;;;;;;3.30;0.90;;;;;;;15.50;100.00;98683.46;223481;1266;142714;-83
2023/08/06 10:58:06;;;;;;;2.00;0.60;;;;;;;15.47;100.00;98682.25;223931;1268;95841;-81
2023/08/06 11:03:07;;;;;;;2.90;0.50;;;;;;;15.46;100.00;98674.27;223269;1267;140465;-83
2023/08/06 11:08:07;;;;;;;3.20;0.60;;;;;;;15.47;100.00;98665.34;224021;1266;139012;-83
2023/08/06 11:13:07;;;;;;;0.80;0.60;;;;;;;15.49;100.00;98669.54;223441;1266;141034;-82
2023/08/06 11:18:09;;;;;;;6.30;3.10;;;;;;;15.49;100.00;98656.16;224002;1265;139430;-81
2023/08/06 11:23:10;;;;;;;5.50;3.60;;;;;;;15.49;100.00;98657.83;223429;1267;142329;-82
2023/08/06 11:28:11;;;;;;;1.90;1.60;;;;;;;15.50;100.00;98718.61;224001;1268;96093;-82
2023/08/06 11:33:12;;;;;;;2.60;1.20;;;;;;;15.52;100.00;98720.05;223411;1265;140995;-83
2023/08/06 11:38:13;;;;;;;3.10;1.00;;;;;;;15.51;100.00;98688.65;223864;1265;139730;-81
2023/08/06 11:43:14;;;;;;;1.90;0.90;;;;;;;15.49;100.00;98636.55;223333;1265;140813;-82
2023/08/06 11:48:15;;;;;;;1.70;0.90;;;;;;;15.48;100.00;98603.80;223808;1266;138928;-81
2023/08/06 11:53:16;;;;;;;3.20;0.90;;;;;;;15.50;100.00;98673.64;223379;1268;140305;-81
2023/08/06 11:58:17;;;;;;;4.50;0.90;;;;;;;15.52;100.00;98697.55;224069;1266;95800;-80
2023/08/06 12:03:19;;;;;;;4.90;1.20;;;;;;;15.55;100.00;98714.54;223393;1267;140413;-79
2023/08/06 12:08:20;;;;;;;5.60;1.20;;;;;;;15.60;100.00;98719.15;223917;1264;139576;-80
2023/08/06 12:13:20;;;;;;;2.80;0.90;;;;;;;15.63;100.00;98716.89;223358;1267;140235;-82
2023/08/06 12:18:22;;;;;;;3.40;0.60;;;;;;;15.65;100.00;98701.29;223894;1267;138970;-83
2023/08/06 12:23:22;;;;;;;4.90;2.80;;;;;;;15.69;100.00;98707.23;223420;1267;141789;-81
2023/08/06 12:28:23;;;;;;;2.90;1.70;;;;;;;15.73;100.00;98696.62;223900;1265;95964;-82
2023/08/06 12:33:23;;;;;;;2.30;0.80;;;;;;;15.75;100.00;98635.48;223418;1265;140652;-82
2023/08/06 12:38:24;;;;;;;2.70;1.30;;;;;;;15.75;100.00;98631.54;223950;1265;139470;-81
2023/08/06 12:43:24;;;;;;;2.20;0.80;;;;;;;15.82;100.00;98640.64;223423;1265;140727;-81
2023/08/06 12:48:24;;;;;;;1.50;0.80;;;;;;;15.89;100.00;98621.05;223954;1265;138939;-81
2023/08/06 12:53:25;;;;;;;1.50;0.70;;;;;;;15.94;100.00;98601.42;223389;1265;140725;-81
2023/08/06 12:58:25;;;;;;;1.00;0.60;;;;;;;15.97;100.00;98593.86;223975;1265;96095;-82
2023/08/06 13:03:26;;;;;;;1.10;0.60;;;;;;;16.01;100.00;98613.09;223346;1265;140936;-81
2023/08/06 13:08:27;;;;;;;2.10;0.50;;;;;;;16.07;100.00;98621.80;223970;1265;138895;-82
2023/08/06 13:13:27;;;;;;;2.10;0.40;;;;;;;16.10;100.00;98602.26;223278;1267;140793;-82
2023/08/06 13:18:29;;;;;;;1.40;0.40;;;;;;;16.09;100.00;98594.15;223810;1264;139056;-82
2023/08/06 13:23:29;;;;;;;1.00;0.30;;;;;;;16.15;100.00;98592.97;223395;1265;142530;-82
2023/08/06 13:28:30;;;;;;;1.20;0.60;;;;;;;16.21;100.00;98602.33;224001;1265;95916;-83
2023/08/06 13:33:30;;;;;;;1.30;0.50;;;;;;;16.24;100.00;98600.46;223371;1265;142421;-83
2023/08/06 13:38:31;;;;;;;1.70;1.10;;;;;;;16.24;100.00;98597.99;223919;1265;138855;-83
2023/08/06 13:43:31;;;;;;;1.50;0.60;;;;;;;16.22;100.00;98606.93;223434;1265;141872;-83
2023/08/06 13:48:32;;;;;;;1.80;0.70;;;;;;;16.23;100.00;98607.52;223910;1265;139401;-83
2023/08/06 13:53:32;;;;;;;1.30;0.60;;;;;;;16.22;100.00;98605.20;223236;1266;142881;-83
2023/08/06 13:58:33;;;;;;;0.80;0.50;;;;;;;16.22;100.00;98610.29;223982;1265;95790;-83
2023/08/06 14:03:34;;;;;;;2.10;0.70;;;;;;;16.24;100.00;98611.86;223381;1265;140666;-82
2023/08/06 14:08:34;;;;;;;2.70;0.90;;;;;;;16.24;100.00;98604.63;223781;1265;139676;-83
2023/08/06 14:13:35;;;;;;;1.00;0.90;;;;;;;16.25;100.00;98591.21;223339;1265;141591;-83
2023/08/06 14:18:37;;;;;;;1.00;0.60;;;;;;;16.26;100.00;98589.23;223936;1265;140909;-83
2023/08/06 14:23:38;;;;;;;2.70;0.60;;;;;;;16.27;100.00;98593.19;223253;1264;141180;-83
2023/08/06 14:28:38;;;;;;;2.70;0.70;;;;;;;16.24;100.00;98595.38;223869;1265;96169;-84
2023/08/06 14:33:39;;;;;;;2.10;0.70;;;;;;;16.25;100.00;98588.89;223234;1265;140442;-83
2023/08/06 14:38:39;;;;;;;0.90;0.70;;;;;;;16.26;100.00;98587.02;223838;1264;139298;-83
2023/08/06 14:43:40;;;;;;;1.80;0.60;;;;;;;16.29;100.00;98582.56;223348;1265;141516;-83
2023/08/06 14:48:42;;;;;;;1.40;0.50;;;;;;;16.26;100.00;98581.80;223839;1265;139156;-82
2023/08/06 14:53:42;;;;;;;0.70;0.60;;;;;;;16.20;100.00;98586.23;223153;1265;141893;-84
2023/08/06 14:58:42;;;;;;;1.70;0.80;;;;;;;16.17;100.00;98595.80;223819;1265;96014;-83
2023/08/06 15:03:43;;;;;;;5.20;0.60;;;;;;;16.16;100.00;98595.46;223199;1266;142193;-85
2023/08/06 15:08:46;;;;;;;2.00;1.10;;;;;;;16.15;100.00;98593.67;223881;1265;139461;-84
2023/08/06 15:13:47;;;;;;;1.20;1.10;;;;;;;16.11;100.00;98585.92;223348;1265;140686;-84
2023/08/06 15:18:48;;;;;;;2.80;1.20;;;;;;;16.07;100.00;98607.00;223867;1265;138967;-84
2023/08/06 15:23:49;;;;;;;1.40;0.80;;;;;;;16.04;100.00;98621.05;223379;1266;140629;-86
2023/08/06 15:28:49;;;;;;;2.50;0.90;;;;;;;16.01;100.00;98629.11;223977;1265;95882;-82
2023/08/06 15:33:49;;;;;;;1.60;0.70;;;;;;;15.97;100.00;98631.56;223390;1265;140810;-82
2023/08/06 15:38:50;;;;;;;3.00;1.30;;;;;;;15.93;100.00;98644.09;223919;1265;138585;-82
2023/08/06 15:43:50;;;;;;;2.20;1.00;;;;;;;15.89;100.00;98655.66;223359;1265;143021;-82
2023/08/06 15:48:51;;;;;;;3.40;1.00;;;;;;;15.86;100.00;98661.17;223841;1265;139447;-83
2023/08/06 15:53:51;;;;;;;3.50;1.60;;;;;;;15.83;100.00;98677.45;223382;1265;141585;-82
2023/08/06 15:58:52;;;;;;;1.50;0.80;;;;;;;15.82;100.00;98690.98;223927;1265;95795;-82
2023/08/06 16:03:52;;;;;;;3.20;1.00;;;;;;;15.76;100.00;98705.31;223398;1265;141154;-84
2023/08/06 16:08:53;;;;;;;5.40;1.40;;;;;;;15.72;100.00;98723.30;223950;1265;138660;-83
2023/08/06 16:13:53;;;;;;;2.30;0.90;;;;;;;15.66;100.00;98737.05;223384;1265;140970;-83
2023/08/06 16:18:54;;;;;;;2.60;0.70;;;;;;;15.60;100.00;98751.23;223825;1265;139284;-85
2023/08/06 16:23:55;;;;;;;1.80;0.80;;;;;;;15.53;100.00;98753.85;223259;1265;142931;-87
2023/08/06 16:28:55;;;;;;;5.30;1.60;;;;;;;15.46;100.00;98757.83;223994;1265;96272;-82
2023/08/06 16:33:56;;;;;;;2.20;1.00;;;;;;;15.42;100.00;98763.66;223267;1265;141044;-82
2023/08/06 16:38:56;;;;;;;5.60;1.50;;;;;;;15.37;100.00;98747.92;223848;1265;139316;-83
2023/08/06 16:43:57;;;;;;;4.70;1.60;;;;;;;15.32;100.00;98748.95;223489;1265;139966;-82
2023/08/06 16:48:57;;;;;;;4.90;1.50;;;;;;;15.26;100.00;98751.21;223362;1265;141289;-83
2023/08/06 16:53:58;;;;;;;3.60;0.90;;;;;;;15.24;100.00;98764.52;223961;1264;139520;-83
2023/08/06 16:59:00;;;;;;;3.90;1.20;;;;;;;15.21;100.00;98771.40;223353;1264;142120;-81
2023/08/06 17:04:00;;;;;;;3.30;1.10;;;;;;;15.21;100.00;98782.60;223773;1265;139261;-82
2023/08/06 17:09:03;;;;;;;2.00;1.10;;;;;;;15.20;100.00;98784.45;223386;1265;143259;-83
2023/08/06 17:14:03;;;;;;;7.60;1.60;;;;;;;15.17;100.00;98789.27;223784;1268;139803;-82
2023/08/06 17:19:04;;;;;;;7.90;2.40;;;;;;;15.15;100.00;98788.23;223428;1264;141244;-83
2023/08/06 17:24:05;;;;;;;2.00;1.00;;;;;;;15.14;100.00;98800.30;223958;1264;139487;-84
2023/08/06 17:29:05;;;;;;;2.10;1.00;;;;;;;15.10;100.00;98814.70;223486;1264;141885;-84
2023/08/06 17:34:06;;;;;;;1.50;0.90;;;;;;;15.06;100.00;98841.97;224041;1268;96048;-87
2023/08/06 17:39:07;;;;;;;1.60;0.90;;;;;;;15.03;100.00;98866.86;223378;1265;141403;-88
2023/08/06 17:44:08;;;;;;;3.60;1.70;;;;;;;14.99;100.00;98865.08;223940;1265;138942;-88
2023/08/06 17:49:11;;;;;;;5.50;1.90;;;;;;;14.96;100.00;98851.02;223411;1265;140925;-87
2023/08/06 17:54:11;;;;;;;2.10;1.30;;;;;;;14.92;100.00;98850.27;223979;1265;138865;-87
2023/08/06 17:59:12;;;;;;;6.00;1.10;;;;;;;14.88;100.00;98843.66;223326;1265;141030;-85
2023/08/06 18:04:12;;;;;;;1.60;0.90;;;;;;;14.80;100.00;98827.86;224005;1265;95947;-87
2023/08/06 18:09:13;;;;;;;4.60;2.00;;;;;;;14.73;100.00;98809.80;223462;1265;141114;-85
2023/08/06 18:14:13;;;;;;;2.50;1.30;;;;;;;14.66;100.00;98807.41;223823;1265;139592;-87
2023/08/06 18:19:14;;;;;;;2.90;1.10;;;;;;;14.60;100.00;98816.70;223449;1265;142359;-85
2023/08/06 18:24:14;;;;;;;2.10;1.10;;;;;;;14.54;100.00;98808.48;223813;1268;139246;-84
2023/08/06 18:29:15;;;;;;;36.70;19.30;;;;;;;14.52;100.00;98819.96;223424;1265;142019;-84
2023/08/06 18:34:15;;;;;;;5.40;2.10;;;;;;;14.49;100.00;98827.08;224055;1265;96471;-85
2023/08/06 18:39:17;;;;;;;3.30;1.40;;;;;;;14.47;100.00;98843.21;223226;1266;141209;-83
2023/08/06 18:44:19;;;;;;;2.40;1.10;;;;;;;14.43;100.00;98848.45;223937;1265;139537;-84
2023/08/06 18:49:20;;;;;;;3.00;1.20;;;;;;;14.38;100.00;98856.43;223358;1265;141388;-85
2023/08/06 18:54:22;;;;;;;3.50;1.30;;;;;;;14.36;100.00;98882.73;223936;1265;139864;-84
2023/08/06 18:59:23;;;;;;;3.80;1.60;;;;;;;14.36;100.00;98881.41;223377;1266;140990;-84
2023/08/06 19:04:24;;;;;;;3.60;1.70;;;;;;;14.36;100.00;98860.77;224079;1265;95723;-84
2023/08/06 19:09:25;;;;;;;7.00;1.90;;;;;;;14.34;100.00;98843.67;223388;1265;140784;-85
2023/08/06 19:14:26;;;;;;;6.60;2.10;;;;;;;14.33;100.00;98831.05;223955;1265;140181;-84
2023/08/06 19:19:27;;;;;;;6.60;2.20;;;;;;;14.30;100.00;98826.86;223438;1268;141261;-87
2023/08/06 19:24:27;;;;;;;3.10;1.70;;;;;;;14.26;100.00;98832.06;223978;1265;139255;-87
2023/08/06 19:29:28;;;;;;;2.60;1.40;;;;;;;14.22;100.00;98846.46;223475;1265;140506;-83
2023/08/06 19:34:29;;;;;;;3.40;1.30;;;;;;;14.19;100.00;98856.41;224103;1265;95938;-90
2023/08/06 19:39:29;;;;;;;3.00;1.40;;;;;;;14.17;100.00;98854.49;223419;1264;141370;-88
2023/08/06 19:44:30;;;;;;;3.60;1.50;;;;;;;14.17;100.00;98858.27;224030;1265;139460;-86
2023/08/06 19:49:30;;;;;;;3.20;1.60;;;;;;;14.16;100.00;98856.02;223319;1265;140944;-88
2023/08/06 19:54:31;;;;;;;4.10;1.40;;;;;;;14.14;100.00;98862.55;224012;1265;138769;-92
2023/08/06 19:59:32;;;;;;;2.50;1.40;;;;;;;14.12;100.00;98856.77;223476;1265;141131;-91
2023/08/06 20:04:32;;;;;;;3.70;1.60;;;;;;;14.11;100.00;98848.58;224116;1265;97784;-89
2023/08/06 20:09:33;;;;;;;5.30;1.60;;;;;;;14.12;100.00;98843.09;223486;1265;140713;-91
2023/08/06 20:14:33;;;;;;;4.30;1.70;;;;;;;14.10;100.00;98842.60;223820;1264;140203;-88
2023/08/06 20:19:34;;;;;;;5.00;1.70;;;;;;;14.07;100.00;98848.59;223219;1265;141684;-90
2023/08/06 20:24:34;;;;;;;4.10;1.80;;;;;;;14.05;100.00;98844.72;224064;1265;139259;-90
2023/08/06 20:29:35;;;;;;;3.70;1.60;;;;;;;14.01;100.00;98839.13;223342;1265;142159;-91
2023/08/06 20:34:36;;;;;;;5.40;1.80;;;;;;;14.00;100.00;98834.59;224159;1266;95966;-91
2023/08/06 20:39:37;;;;;;;5.30;2.10;;;;;;;13.97;100.00;98842.17;223581;1264;140964;-90
2023/08/06 20:44:38;;;;;;;4.90;2.10;;;;;;;13.95;100.00;98841.13;223926;1268;138919;-90
2023/08/06 20:49:38;;;;;;;3.00;1.70;;;;;;;13.94;100.00;98845.40;223424;1265;141581;-90
2023/08/06 20:54:39;;;;;;;5.20;2.30;;;;;;;13.93;100.00;98850.49;224216;1265;138901;-90
2023/08/06 20:59:39;;;;;;;4.90;1.80;;;;;;;13.91;100.00;98863.36;223614;1265;141966;-91
2023/08/06 21:04:41;;;;;;;3.60;1.80;;;;;;;13.89;100.00;98875.66;224009;1265;96233;-88
2023/08/06 21:09:42;;;;;;;4.60;1.60;;;;;;;13.88;100.00;98887.63;223547;1266;141768;-90
2023/08/06 21:14:42;;;;;;;4.20;1.60;;;;;;;13.88;100.00;98904.83;223899;1265;139456;-87
2023/08/06 21:19:43;;;;;;;2.80;1.60;;;;;;;13.87;100.00;98910.71;223505;1265;141163;-90
2023/08/06 21:24:43;;;;;;;5.20;1.50;;;;;;;13.84;100.00;98907.40;223822;1265;140356;-91
2023/08/06 21:29:44;;;;;;;2.60;1.30;;;;;;;13.82;100.00;98905.08;223317;1265;141980;-88
2023/08/06 21:34:44;;;;;;;4.30;1.40;;;;;;;13.82;100.00;98904.23;224136;1265;96068;-86
2023/08/06 21:39:45;;;;;;;5.30;1.70;;;;;;;13.81;100.00;98908.34;223115;1265;510811;-87
2023/08/06 21:44:45;;;;;;;3.40;1.60;;;;;;;13.80;100.00;98908.36;223906;1264;139566;-88
2023/08/06 21:49:46;;;;;;;3.20;1.30;;;;;;;13.78;100.00;98910.09;223474;1265;140655;-91
2023/08/06 21:54:46;;;;;;;2.70;1.60;;;;;;;13.75;100.00;98911.91;224023;1265;139252;-89
2023/08/06 21:59:46;;;;;;;3.60;1.90;;;;;;;13.75;100.00;98909.55;223465;1264;140857;-89
2023/08/06 22:04:47;;;;;;;5.20;2.10;;;;;;;13.75;100.00;98918.30;224001;1265;95792;-87
2023/08/06 22:09:47;;;;;;;4.50;2.20;;;;;;;13.74;100.00;98927.50;223309;1265;140240;-90
2023/08/06 22:14:48;;;;;;;4.80;2.10;;;;;;;13.74;100.00;98935.89;224057;1268;139248;-92
2023/08/06 22:19:48;;;;;;;4.90;2.40;;;;;;;13.73;100.00;98942.38;223487;1265;141679;-92
2023/08/06 22:24:48;;;;;;;4.50;2.50;;;;;;;13.71;100.00;98937.52;224108;1265;138947;-91
2023/08/06 22:29:49;;;;;;;4.90;2.30;;;;;;;13.71;100.00;98930.25;223651;1265;140810;-90
2023/08/06 22:34:49;;;;;;;7.20;2.50;;;;;;;13.70;100.00;98921.67;224465;1265;95953;-93
2023/08/06 22:39:58;;;;;;;6.70;2.50;;;;;;;13.71;100.00;98911.06;223577;1267;140232;-96
2023/08/06 22:44:58;;;;;;;4.10;2.10;;;;;;;13.72;100.00;98911.83;224351;1268;138593;-92
2023/08/06 22:49:59;;;;;;;4.90;2.30;;;;;;;13.72;100.00;98912.69;223794;1264;140746;-92